Baldwinholme, United Kingdom
Current Conditions -  °F | °C
As of 4:20 AM on Wednesday 26 Nov 2014 (Local Time) from EGNT Reporting Station
Light Rain Light Rain  
Wind Chill: 39°   Ceiling: 2200
Heat Index: 39°   Visibility: 6mi
Dew Point: 39°   Wind: 3mph
Humidity: 100%   Direction: 260°W
Pressure: 30.03"   Gusts: NA
Location:  54.92°N, 3.1°W
Report Text: EGNT 260420Z 26003KT 9999 -RA BKN022 04/04 Q1017
Loading
Personal Weather Stations






























Interactive Weather Map New forecast layout! Learn more

10-Day Weather Forecast

Advertisements
Track Severe Weather on mobile